createdAt,value
2022-11-15T00:03:13.673Z,8.32
2022-11-15T00:08:28.072Z,8.23
2022-11-15T00:13:52.427Z,8.32
2022-11-15T00:19:30.650Z,8.10
2022-11-15T00:24:50.268Z,8.05
2022-11-15T00:30:07.562Z,8.93
2022-11-15T00:35:44.663Z,8.20
2022-11-15T00:41:36.468Z,7.75
2022-11-15T00:47:19.421Z,7.60
2022-11-15T00:52:43.584Z,8.40
2022-11-15T00:58:09.064Z,7.68
2022-11-15T01:03:43.893Z,8.02
2022-11-15T01:08:57.333Z,7.35
2022-11-15T01:14:52.150Z,8.57
2022-11-15T01:20:42.566Z,8.02
2022-11-15T01:26:42.334Z,7.50
2022-11-15T01:32:04.590Z,7.85
2022-11-15T01:37:17.008Z,8.27
2022-11-15T01:42:32.927Z,8.23
2022-11-15T01:47:54.244Z,8.75
2022-11-15T01:53:14.931Z,8.50
2022-11-15T01:58:29.210Z,9.10
2022-11-15T02:04:41.100Z,8.30
2022-11-15T02:10:08.313Z,9.02
2022-11-15T02:15:22.511Z,8.57
2022-11-15T02:20:49.840Z,8.93
2022-11-15T02:26:20.811Z,8.60
2022-11-15T02:31:41.142Z,8.73
2022-11-15T02:37:28.097Z,8.90
2022-11-15T02:43:48.521Z,8.85
2022-11-15T02:56:12.061Z,8.70
2022-11-15T03:01:38.296Z,9.73
2022-11-15T03:06:58.576Z,8.73
2022-11-15T03:12:20.091Z,9.10
2022-11-15T03:17:57.749Z,9.00
2022-11-15T03:23:20.371Z,9.43
2022-11-15T03:28:37.727Z,9.25
2022-11-15T03:33:56.326Z,10.20
2022-11-15T03:39:41.932Z,9.13
2022-11-15T03:46:35.660Z,8.63
2022-11-15T03:52:08.170Z,9.73
2022-11-15T03:58:09.709Z,10.32
2022-11-15T04:03:42.713Z,10.40
2022-11-15T04:09:21.867Z,9.82
2022-11-15T04:14:35.093Z,10.07
2022-11-15T04:20:03.700Z,9.57
2022-11-15T04:25:22.919Z,9.40
2022-11-15T04:30:46.121Z,10.07
2022-11-15T04:36:15.650Z,11.93
2022-11-15T04:41:27.469Z,11.80
2022-11-15T04:46:40.532Z,11.10
2022-11-15T04:51:52.802Z,11.05
2022-11-15T04:57:04.511Z,10.75
2022-11-15T05:02:17.916Z,9.27
2022-11-15T05:07:29.656Z,10.25
2022-11-15T05:12:41.530Z,8.95
2022-11-15T05:18:00.004Z,11.65
2022-11-15T05:23:11.987Z,10.30
2022-11-15T05:28:23.694Z,9.80
2022-11-15T05:33:41.026Z,10.77
2022-11-15T05:38:53.351Z,10.65
2022-11-15T05:44:10.419Z,10.00
2022-11-15T05:49:32.372Z,11.25
2022-11-15T05:54:47.892Z,10.80
2022-11-15T06:00:00.009Z,10.50
2022-11-15T06:05:13.265Z,10.43
2022-11-15T06:10:25.338Z,12.45
2022-11-15T06:15:37.500Z,12.07
2022-11-15T06:20:51.109Z,12.10
2022-11-15T06:26:03.428Z,10.75
2022-11-15T06:31:15.280Z,11.68
2022-11-15T06:36:28.668Z,11.13
2022-11-15T06:41:40.458Z,10.90
2022-11-15T06:46:52.663Z,11.10
2022-11-15T06:52:06.591Z,9.57
2022-11-15T06:57:19.757Z,10.32
2022-11-15T07:02:33.412Z,10.15
2022-11-15T07:07:53.590Z,9.88
2022-11-15T07:13:06.733Z,9.73
2022-11-15T07:18:31.053Z,9.00
2022-11-15T07:23:46.366Z,9.90
2022-11-15T07:29:00.901Z,10.07
2022-11-15T07:34:13.685Z,9.60
2022-11-15T07:39:26.701Z,10.40
2022-11-15T07:44:38.904Z,10.00
2022-11-15T07:49:50.953Z,10.60
2022-11-15T07:55:04.186Z,10.57
2022-11-15T08:00:17.233Z,10.75
2022-11-15T08:05:31.377Z,11.73
2022-11-15T08:10:44.635Z,12.07
2022-11-15T08:16:02.268Z,12.27
2022-11-15T08:21:18.527Z,11.60
2022-11-15T08:26:32.393Z,12.57
2022-11-15T08:31:50.650Z,12.65
2022-11-15T08:37:55.887Z,13.15
2022-11-15T08:49:06.440Z,13.98
2022-11-15T08:54:18.397Z,13.68
2022-11-15T08:59:31.735Z,13.13
2022-11-15T09:04:44.483Z,12.63
2022-11-15T09:09:55.971Z,13.30
2022-11-15T09:15:18.841Z,13.23
2022-11-15T09:20:37.000Z,14.27
2022-11-15T09:25:49.014Z,14.38
2022-11-15T09:31:22.416Z,15.15
2022-11-15T09:36:34.550Z,14.43
2022-11-15T09:42:28.135Z,15.85
2022-11-15T09:48:33.195Z,15.88
2022-11-15T09:54:37.535Z,15.48
2022-11-15T09:59:40.969Z,15.40
2022-11-15T10:04:38.916Z,16.85
2022-11-15T10:09:55.066Z,15.65
2022-11-15T10:14:54.616Z,15.40
2022-11-15T10:20:13.160Z,14.80
2022-11-15T10:25:22.190Z,15.32
2022-11-15T10:30:18.163Z,14.50
2022-11-15T10:35:27.348Z,14.32
2022-11-15T10:40:33.323Z,14.32
2022-11-15T10:45:30.626Z,14.55
2022-11-15T10:51:03.279Z,15.23
2022-11-15T10:56:04.185Z,15.55
2022-11-15T11:00:59.060Z,15.25
2022-11-15T11:06:07.019Z,20.17
2022-11-15T11:16:14.286Z,14.68
2022-11-15T11:21:19.936Z,15.80
2022-11-15T11:26:32.233Z,16.10
2022-11-15T11:31:34.563Z,15.88
2022-11-15T11:36:44.805Z,17.10
2022-11-15T11:42:01.016Z,16.42
2022-11-15T11:47:03.925Z,16.33
2022-11-15T11:52:07.954Z,19.08
2022-11-15T11:57:05.134Z,19.60
2022-11-15T12:02:11.440Z,20.67
2022-11-15T12:07:13.722Z,16.83
2022-11-15T12:12:33.278Z,15.68
2022-11-15T12:17:34.064Z,17.42
2022-11-15T12:22:51.164Z,19.13
2022-11-15T12:27:51.729Z,18.98
2022-11-15T12:32:55.793Z,20.17
2022-11-15T12:38:04.683Z,19.48
2022-11-15T12:43:16.500Z,17.48
2022-11-15T12:48:59.688Z,18.20
2022-11-15T12:53:58.621Z,20.38
2022-11-15T12:59:00.233Z,24.95
2022-11-15T13:04:25.353Z,24.05
2022-11-15T13:10:01.044Z,15.00
2022-11-15T13:14:58.911Z,18.35
2022-11-15T13:19:59.882Z,16.75
2022-11-15T13:24:58.447Z,15.88
2022-11-15T13:30:06.804Z,16.23
2022-11-15T13:35:05.893Z,17.17
2022-11-15T13:40:32.644Z,15.77
2022-11-15T13:45:47.258Z,16.65
2022-11-15T13:50:51.503Z,18.25
2022-11-15T13:55:49.665Z,17.50
2022-11-15T14:06:18.861Z,18.27
2022-11-15T14:11:22.372Z,17.13
2022-11-15T14:16:28.285Z,18.52
2022-11-15T14:21:23.513Z,18.83
2022-11-15T14:26:34.010Z,15.80
2022-11-15T14:31:28.772Z,17.02
2022-11-15T14:36:25.676Z,19.38
2022-11-15T14:41:25.829Z,16.98
2022-11-15T14:46:24.262Z,18.83
2022-11-15T14:51:27.200Z,20.58
2022-11-15T14:56:34.827Z,19.55
2022-11-15T15:01:40.786Z,19.48
2022-11-15T15:06:54.537Z,18.63
2022-11-15T15:11:50.657Z,19.73
2022-11-15T15:16:49.998Z,22.52
2022-11-15T15:21:48.985Z,16.70
2022-11-15T15:26:44.509Z,17.80
2022-11-15T15:31:37.814Z,21.08
2022-11-15T15:36:31.116Z,18.88
2022-11-15T15:41:26.086Z,20.67
2022-11-15T15:46:20.872Z,20.92
2022-11-15T15:51:20.125Z,23.83
2022-11-15T15:56:16.335Z,21.48
2022-11-15T16:01:11.041Z,22.90
2022-11-15T16:06:07.253Z,22.20
2022-11-15T16:11:04.777Z,22.00
2022-11-15T16:15:59.635Z,22.20
2022-11-15T16:27:33.204Z,19.33
2022-11-15T16:32:44.544Z,25.25
2022-11-15T16:43:39.984Z,20.55
2022-11-15T16:48:44.533Z,23.00
2022-11-15T16:53:49.874Z,26.33
2022-11-15T16:58:46.259Z,24.40
2022-11-15T17:03:42.310Z,24.63
2022-11-15T17:08:37.700Z,25.80
2022-11-15T17:13:33.622Z,23.00
2022-11-15T17:18:36.522Z,24.13
2022-11-15T17:23:35.131Z,22.42
2022-11-15T17:28:28.876Z,21.00
2022-11-15T17:33:30.101Z,25.52
2022-11-15T17:38:42.833Z,21.08
2022-11-15T17:43:44.171Z,20.80
2022-11-15T17:48:59.520Z,20.63
2022-11-15T17:54:23.173Z,20.35
2022-11-15T17:59:21.376Z,19.10
2022-11-15T18:04:23.135Z,22.17
2022-11-15T18:09:22.045Z,21.98
2022-11-15T18:14:25.462Z,21.55
2022-11-15T18:19:24.985Z,26.75
2022-11-15T18:25:13.190Z,21.35
2022-11-15T18:30:29.232Z,21.20
2022-11-15T18:35:24.111Z,22.95
2022-11-15T18:40:28.738Z,25.90
2022-11-15T18:45:24.539Z,22.65
2022-11-15T18:50:20.448Z,24.92
2022-11-15T21:46:08.393Z,19.75
2022-11-15T22:13:24.179Z,18.37
2022-11-15T22:52:57.556Z,19.55
